createdAt,value
2023-04-17T00:00:54.985Z,21.3692
2023-04-17T00:01:56.650Z,21.5308
2023-04-17T00:02:58.379Z,20.4231
2023-04-17T00:04:00.117Z,21.1308
2023-04-17T00:05:01.644Z,22.4000
2023-04-17T00:06:03.206Z,21.3615
2023-04-17T00:07:04.851Z,21.2462
2023-04-17T00:08:06.527Z,22.4308
2023-04-17T00:09:08.168Z,21.9308
2023-04-17T00:10:09.891Z,23.0538
2023-04-17T00:11:11.405Z,22.0077
2023-04-17T00:12:13.068Z,22.3923
2023-04-17T00:13:14.728Z,27.5000
2023-04-17T00:14:16.347Z,28.5077
2023-04-17T00:15:18.015Z,25.4462
2023-04-17T00:16:19.662Z,20.9923
2023-04-17T00:17:21.331Z,20.2154
2023-04-17T00:18:22.908Z,22.6385
2023-04-17T00:19:24.545Z,24.4538
2023-04-17T00:20:26.247Z,23.9615
2023-04-17T00:21:27.845Z,23.0462
2023-04-17T00:22:29.489Z,22.8000
2023-04-17T00:23:31.145Z,21.5615
2023-04-17T00:24:32.760Z,21.7077
2023-04-17T00:25:34.426Z,21.6846
2023-04-17T00:26:36.041Z,22.0692
2023-04-17T00:27:37.720Z,21.1077
2023-04-17T00:28:39.326Z,20.0923
2023-04-17T00:29:41.003Z,19.4769
2023-04-17T00:30:42.664Z,20.2154
2023-04-17T00:31:44.315Z,20.3077
2023-04-17T00:32:45.960Z,19.8154
2023-04-17T00:33:47.549Z,19.5769
2023-04-17T00:34:49.188Z,20.6923
2023-04-17T00:35:50.905Z,21.5538
2023-04-17T00:36:52.470Z,21.4308
2023-04-17T00:37:54.112Z,21.1308
2023-04-17T00:38:55.780Z,21.2231
2023-04-17T00:39:57.409Z,20.8154
2023-04-17T00:40:59.091Z,21.3923
2023-04-17T00:42:00.735Z,20.7385
2023-04-17T00:43:02.352Z,21.5923
2023-04-17T00:44:03.975Z,21.5385
2023-04-17T00:45:05.651Z,23.4615
2023-04-17T00:46:07.303Z,21.6462
2023-04-17T00:47:08.921Z,23.4538
2023-04-17T00:48:10.534Z,23.5692
2023-04-17T00:49:12.313Z,26.7385
2023-04-17T00:50:13.797Z,24.1615
2023-04-17T00:51:15.507Z,20.6692
2023-04-17T00:52:17.069Z,21.6615
2023-04-17T00:53:18.747Z,21.7538
2023-04-17T00:54:20.369Z,20.2538
2023-04-17T00:55:22.011Z,22.6615
2023-04-17T00:56:23.682Z,21.4462
2023-04-17T00:57:25.327Z,22.5385
2023-04-17T00:58:26.945Z,20.4385
2023-04-17T00:59:28.568Z,21.4769
2023-04-17T01:00:30.238Z,20.9231
2023-04-17T01:01:31.959Z,20.6077
2023-04-17T01:02:33.670Z,22.4846
2023-04-17T01:03:35.414Z,19.3308
2023-04-17T01:04:36.801Z,19.8077
2023-04-17T01:05:38.493Z,20.0769
2023-04-17T01:06:40.119Z,18.5769
2023-04-17T01:07:41.763Z,18.1231
2023-04-17T01:08:43.379Z,19.2154
2023-04-17T01:09:44.987Z,20.1077
2023-04-17T01:10:46.645Z,19.4462
2023-04-17T01:11:48.290Z,16.8231
2023-04-17T01:12:49.981Z,17.4846
2023-04-17T01:13:51.665Z,18.6308
2023-04-17T01:14:53.340Z,18.2538
2023-04-17T01:15:54.997Z,19.5308
2023-04-17T01:16:56.678Z,22.1308
2023-04-17T01:17:58.311Z,20.3692
2023-04-17T01:18:59.901Z,17.8231
2023-04-17T01:20:01.541Z,18.3846
2023-04-17T01:21:03.184Z,17.9462
2023-04-17T01:22:04.856Z,19.1308
2023-04-17T01:23:06.483Z,23.6308
2023-04-17T01:24:08.084Z,23.0846
2023-04-17T01:25:09.779Z,18.3538
2023-04-17T01:26:11.381Z,17.8308
2023-04-17T01:27:13.090Z,17.9077
2023-04-17T01:28:14.682Z,16.1000
2023-04-17T01:29:16.326Z,16.1615
2023-04-17T01:30:17.951Z,15.6462
2023-04-17T01:31:19.651Z,16.5154
2023-04-17T01:32:21.281Z,18.0692
2023-04-17T01:33:22.882Z,18.2923
2023-04-17T01:34:24.527Z,17.9769
2023-04-17T01:35:26.167Z,17.1385
2023-04-17T01:36:27.805Z,16.9692
2023-04-17T01:37:29.504Z,16.0615
2023-04-17T01:38:31.061Z,14.9000
2023-04-17T01:39:32.729Z,15.5000
2023-04-17T01:40:34.377Z,15.0385
2023-04-17T01:41:36.025Z,15.9769
2023-04-17T01:42:37.696Z,15.9615
2023-04-17T01:43:39.356Z,16.6077
2023-04-17T01:44:40.946Z,16.1000
2023-04-17T01:45:42.578Z,14.7923
2023-04-17T01:46:44.278Z,16.3692
2023-04-17T01:47:46.462Z,16.0846
2023-04-17T01:48:47.550Z,16.0923
2023-04-17T01:49:49.193Z,14.9923
2023-04-17T01:50:50.844Z,14.4923
2023-04-17T01:51:52.517Z,14.6538
2023-04-17T01:52:54.171Z,14.4077
2023-04-17T01:53:55.752Z,15.7769
2023-04-17T01:54:57.386Z,15.9000
2023-04-17T01:55:59.020Z,14.8769
2023-04-17T01:57:00.652Z,16.4769
2023-04-17T01:58:02.429Z,17.3000
2023-04-17T01:59:03.973Z,17.8462
2023-04-17T02:00:05.630Z,17.6385
2023-04-17T02:01:07.233Z,17.4077
2023-04-17T02:02:09.067Z,16.3462
2023-04-17T02:03:10.629Z,17.5615
2023-04-17T02:04:12.288Z,16.7385
2023-04-17T02:05:13.786Z,15.2692
2023-04-17T02:06:15.440Z,15.2462
2023-04-17T02:07:17.068Z,14.9385
2023-04-17T02:08:18.783Z,14.9231
2023-04-17T02:09:20.351Z,14.9308
2023-04-17T02:10:21.983Z,15.4308
2023-04-17T02:11:23.650Z,16.4769
2023-04-17T02:12:25.306Z,15.7077
2023-04-17T02:13:26.995Z,15.4615
2023-04-17T02:14:28.550Z,14.7615
2023-04-17T02:15:30.224Z,14.8538
2023-04-17T02:16:31.908Z,15.4538
2023-04-17T02:17:33.520Z,16.0462
2023-04-17T02:18:35.231Z,15.4615
2023-04-17T02:19:36.760Z,15.7077
2023-04-17T02:20:38.393Z,15.0154
2023-04-17T02:21:40.037Z,16.1308
2023-04-17T02:22:41.687Z,16.9462
2023-04-17T02:23:43.374Z,16.8923
2023-04-17T02:24:44.953Z,19.2615
2023-04-17T02:25:46.583Z,19.7077
2023-04-17T02:26:48.246Z,19.0385
2023-04-17T02:27:49.872Z,18.7846
2023-04-17T02:28:51.556Z,17.4000
2023-04-17T02:29:53.149Z,16.8615
2023-04-17T02:30:54.972Z,15.1692
2023-04-17T02:31:56.566Z,15.0077
2023-04-17T02:32:58.150Z,15.8846
2023-04-17T02:33:59.759Z,16.1385
2023-04-17T02:35:01.343Z,15.4615
2023-04-17T02:36:02.995Z,15.2538
2023-04-17T02:37:04.652Z,15.2154
2023-04-17T02:38:06.278Z,14.4923
2023-04-17T02:39:07.946Z,14.5231
2023-04-17T02:40:09.561Z,14.7846
2023-04-17T02:41:11.171Z,14.1231
2023-04-17T02:42:12.861Z,14.6923
2023-04-17T02:43:14.472Z,15.3308
2023-04-17T02:44:16.166Z,15.2154
2023-04-17T02:45:17.779Z,14.9154
2023-04-17T02:46:19.440Z,14.9077
2023-04-17T02:47:21.204Z,15.3462
2023-04-17T02:48:22.580Z,14.7462
2023-04-17T02:49:24.270Z,14.7077
2023-04-17T02:50:25.944Z,13.0462
2023-04-17T02:51:27.580Z,14.1462
2023-04-17T02:52:29.221Z,14.4154
2023-04-17T02:53:30.859Z,13.5692
2023-04-17T02:54:32.584Z,14.0154
2023-04-17T02:55:34.269Z,15.1000
2023-04-17T02:56:35.721Z,14.2308
2023-04-17T02:57:37.403Z,15.1692
2023-04-17T02:58:38.999Z,14.0692
2023-04-17T02:59:40.837Z,13.6692
2023-04-17T03:00:42.335Z,13.9923
2023-04-17T03:01:43.968Z,13.1077
2023-04-17T03:02:45.709Z,14.4846
2023-04-17T03:03:47.272Z,13.5385
2023-04-17T03:04:48.887Z,14.7615
2023-04-17T03:05:50.485Z,15.4077
2023-04-17T03:06:52.375Z,15.9308
2023-04-17T03:07:53.950Z,16.1769
2023-04-17T03:08:55.460Z,14.7923
2023-04-17T03:09:57.113Z,14.4154
2023-04-17T03:10:58.694Z,13.6154
2023-04-17T03:12:00.336Z,14.7538
2023-04-17T03:13:02.000Z,15.3846
2023-04-17T03:14:03.634Z,15.0462
2023-04-17T03:15:06.417Z,16.8538
2023-04-17T03:16:06.994Z,14.8923
2023-04-17T03:17:08.589Z,13.8769
2023-04-17T03:18:10.225Z,13.0538
2023-04-17T03:19:12.091Z,12.8769
2023-04-17T03:20:13.519Z,13.6077
2023-04-17T03:21:15.132Z,13.3923
2023-04-17T03:22:16.797Z,13.6385
2023-04-17T03:23:18.426Z,13.7923
2023-04-17T03:24:20.069Z,13.7154
2023-04-17T03:25:21.732Z,13.7462
2023-04-17T03:26:23.343Z,12.9385
2023-04-17T03:27:25.005Z,12.7308
2023-04-17T03:28:26.646Z,13.7923
2023-04-17T03:29:28.285Z,14.6923
2023-04-17T03:30:29.986Z,14.9000
2023-04-17T03:31:32.223Z,14.2231
2023-04-17T03:32:33.346Z,13.7692
2023-04-17T03:33:34.946Z,13.8000
2023-04-17T03:34:36.562Z,14.0385
2023-04-17T03:35:38.247Z,14.8692
2023-04-17T03:36:39.825Z,14.6000
2023-04-17T03:37:41.469Z,14.3231
2023-04-17T03:38:43.125Z,14.3154
2023-04-17T03:39:44.779Z,14.9154
2023-04-17T03:40:46.489Z,15.6615
2023-04-17T03:41:48.048Z,14.2615
2023-04-17T03:42:49.706Z,15.8615
2023-04-17T03:43:51.361Z,14.8000
2023-04-17T03:44:53.016Z,15.4308
2023-04-17T03:45:54.764Z,13.6462
2023-04-17T03:46:56.338Z,14.3308
2023-04-17T03:47:57.941Z,13.6615
2023-04-17T03:48:59.967Z,13.0615
2023-04-17T03:50:01.234Z,13.8385
2023-04-17T03:51:02.969Z,14.2615
2023-04-17T03:52:04.501Z,15.3769
2023-04-17T03:53:06.151Z,14.7692
2023-04-17T03:54:07.799Z,15.0308
2023-04-17T03:55:09.498Z,14.5769
2023-04-17T03:56:11.174Z,14.6615
2023-04-17T03:57:12.731Z,15.2000
2023-04-17T03:58:14.391Z,14.5000
2023-04-17T03:59:15.993Z,14.2615
2023-04-17T04:00:17.583Z,15.2154
2023-04-17T04:01:19.297Z,14.8615
2023-04-17T04:02:20.939Z,14.0769
2023-04-17T04:03:22.623Z,14.1154
2023-04-17T04:04:24.341Z,14.2154
2023-04-17T04:05:25.828Z,15.1538
2023-04-17T04:06:27.401Z,15.8231
2023-04-17T04:07:29.180Z,14.9462
2023-04-17T04:08:30.679Z,16.2231
2023-04-17T04:09:32.342Z,14.9462
2023-04-17T04:10:33.962Z,14.0385
2023-04-17T04:11:35.617Z,16.9154
2023-04-17T04:12:37.281Z,14.5308
2023-04-17T04:13:38.877Z,14.2538
2023-04-17T04:14:41.776Z,14.8154
2023-04-17T04:15:42.193Z,14.7000
2023-04-17T04:16:43.814Z,13.8077
2023-04-17T04:17:45.469Z,13.6308
2023-04-17T04:18:47.081Z,15.1000
2023-04-17T04:19:48.731Z,15.0308
2023-04-17T04:20:50.376Z,15.2538
2023-04-17T04:21:52.034Z,14.6923
2023-04-17T04:22:53.743Z,15.0923
2023-04-17T04:23:55.312Z,15.9615
2023-04-17T04:24:56.960Z,15.7462
2023-04-17T04:25:58.614Z,15.6538
2023-04-17T04:27:00.278Z,14.0077
2023-04-17T04:28:01.881Z,14.6769
2023-04-17T04:29:03.479Z,14.6231
2023-04-17T04:30:05.258Z,13.5000
2023-04-17T04:31:06.870Z,12.5692
2023-04-17T04:32:08.410Z,12.6077
2023-04-17T04:33:10.076Z,12.9538
2023-04-17T04:34:11.720Z,13.7385
2023-04-17T04:35:13.438Z,12.3077
2023-04-17T04:36:15.141Z,12.9462
2023-04-17T04:37:16.719Z,12.5923
2023-04-17T04:38:18.359Z,14.2538
2023-04-17T04:39:20.039Z,14.0154
2023-04-17T04:40:21.545Z,14.3692
2023-04-17T04:41:23.219Z,14.0538
2023-04-17T04:42:24.840Z,13.4692
2023-04-17T04:43:26.491Z,13.2615
2023-04-17T04:44:28.111Z,13.5231
2023-04-17T04:45:29.767Z,14.9615
2023-04-17T04:46:31.516Z,16.6462
2023-04-17T04:47:33.078Z,14.4615
2023-04-17T04:48:34.690Z,14.4308
2023-04-17T04:49:36.359Z,14.2615
2023-04-17T04:50:37.993Z,12.0154
2023-04-17T04:51:39.671Z,13.1615
2023-04-17T04:52:41.311Z,14.8769
2023-04-17T04:53:42.939Z,15.0846
2023-04-17T04:54:44.574Z,15.1846
2023-04-17T04:55:46.211Z,14.7692
2023-04-17T04:56:47.916Z,14.1538
2023-04-17T04:57:49.510Z,13.7231
2023-04-17T04:58:51.156Z,14.4231
2023-04-17T04:59:52.815Z,14.5615
2023-04-17T05:00:54.584Z,13.3462
2023-04-17T05:01:56.183Z,12.0462
2023-04-17T05:02:57.859Z,11.4385
2023-04-17T05:03:59.466Z,13.1077
2023-04-17T05:05:01.129Z,13.0385
2023-04-17T05:06:02.642Z,13.0077
2023-04-17T05:07:04.385Z,13.9308
2023-04-17T05:08:05.942Z,13.9154
2023-04-17T05:09:07.601Z,13.2615
2023-04-17T05:10:09.247Z,12.2462
2023-04-17T05:11:10.962Z,10.5154
2023-04-17T05:12:12.541Z,11.3000
2023-04-17T05:13:14.152Z,11.1846
2023-04-17T05:14:15.780Z,12.6615
2023-04-17T05:15:17.423Z,13.4154
2023-04-17T05:16:19.167Z,14.5154
2023-04-17T05:17:20.955Z,15.1154
2023-04-17T05:18:22.505Z,11.7769
2023-04-17T05:19:24.140Z,10.7385
2023-04-17T05:20:25.762Z,12.7000
2023-04-17T05:21:28.744Z,13.4231
2023-04-17T05:22:29.104Z,13.8462
2023-04-17T05:23:30.684Z,12.3308
2023-04-17T05:24:32.366Z,12.7846
2023-04-17T05:25:33.962Z,12.8308
2023-04-17T05:26:35.634Z,12.0923
2023-04-17T05:27:37.384Z,12.4923
2023-04-17T05:28:38.913Z,14.6692
2023-04-17T05:29:40.540Z,16.0538
2023-04-17T05:30:42.192Z,13.0615
2023-04-17T05:31:43.832Z,12.6923
2023-04-17T05:32:45.492Z,11.3923
2023-04-17T05:33:47.139Z,11.1308
2023-04-17T05:34:48.706Z,9.9692
2023-04-17T05:35:50.340Z,10.7462
2023-04-17T05:36:51.988Z,8.5538
2023-04-17T05:37:53.657Z,8.0385
2023-04-17T05:38:55.263Z,7.3538
2023-04-17T05:39:56.900Z,6.5615
2023-04-17T05:40:58.573Z,6.6538
2023-04-17T05:42:00.180Z,6.3231
2023-04-17T05:43:01.856Z,6.2538
2023-04-17T05:44:03.509Z,6.0462
2023-04-17T05:45:05.091Z,6.0846
2023-04-17T05:46:06.786Z,6.5462
2023-04-17T05:47:08.385Z,6.2154
2023-04-17T05:48:10.087Z,5.9846
2023-04-17T05:49:11.918Z,6.1077
2023-04-17T05:50:13.299Z,5.9692
2023-04-17T05:51:14.941Z,6.2308
2023-04-17T05:52:16.495Z,6.4231
2023-04-17T05:53:18.181Z,6.7462
2023-04-17T05:54:19.925Z,7.3538
2023-04-17T05:55:21.500Z,91.7615
2023-04-17T05:56:23.132Z,28.8385
2023-04-17T05:57:24.841Z,14.1077
2023-04-17T05:58:26.438Z,8.7154
2023-04-17T05:59:28.069Z,7.1000
2023-04-17T06:00:29.707Z,7.2846
2023-04-17T06:01:31.418Z,31.6538
2023-04-17T06:02:33.087Z,120.8692
2023-04-17T06:03:34.815Z,20.1308
2023-04-17T06:04:36.449Z,9.2308
2023-04-17T06:05:38.033Z,9.4462
2023-04-17T06:06:39.569Z,8.1692
2023-04-17T06:07:41.165Z,7.4538
2023-04-17T06:08:42.822Z,7.8000
2023-04-17T06:09:44.404Z,7.4846
2023-04-17T06:10:46.140Z,7.0385
2023-04-17T06:11:47.712Z,6.9154
2023-04-17T06:12:49.323Z,7.1615
2023-04-17T06:13:51.064Z,7.6308
2023-04-17T06:14:52.629Z,6.6462
2023-04-17T06:15:54.257Z,6.8231
2023-04-17T06:16:55.926Z,7.1462
2023-04-17T06:17:57.592Z,6.9154
2023-04-17T06:18:59.261Z,6.8538
2023-04-17T06:20:00.809Z,6.6923
2023-04-17T06:21:02.529Z,6.5615
2023-04-17T06:22:04.123Z,6.2000
2023-04-17T06:23:05.730Z,5.9000
2023-04-17T06:24:07.327Z,5.4538
2023-04-17T06:25:08.932Z,5.2846
2023-04-17T06:26:10.582Z,5.2231
2023-04-17T06:27:12.201Z,4.7385
2023-04-17T06:28:13.901Z,5.4000
2023-04-17T06:29:15.557Z,4.9000
2023-04-17T06:30:17.107Z,4.9308
2023-04-17T06:31:18.789Z,4.5231
2023-04-17T06:32:20.459Z,4.6615
2023-04-17T06:33:23.112Z,4.6923
2023-04-17T06:34:23.746Z,4.5462
2023-04-17T06:35:25.355Z,4.6615
2023-04-17T06:36:27.011Z,4.2692
2023-04-17T06:37:28.627Z,3.7923
2023-04-17T06:38:30.441Z,4.5154
2023-04-17T06:39:31.978Z,4.7692
2023-04-17T06:40:33.527Z,4.9385
2023-04-17T06:41:35.187Z,4.1385
2023-04-17T06:42:36.843Z,3.5923
2023-04-17T06:43:38.618Z,3.2077
2023-04-17T06:44:40.143Z,2.7077
2023-04-17T06:45:41.762Z,2.5462
2023-04-17T06:46:43.394Z,2.2692
2023-04-17T06:47:45.073Z,2.4692
2023-04-17T06:48:46.696Z,2.9846
2023-04-17T06:49:48.335Z,2.6077
2023-04-17T06:50:49.927Z,3.0769
2023-04-17T06:51:51.579Z,2.6538
2023-04-17T06:52:53.206Z,4.0231
2023-04-17T06:53:54.843Z,4.8615
2023-04-17T06:54:56.540Z,5.5462
2023-04-17T06:55:58.123Z,6.3462
2023-04-17T06:56:59.739Z,6.4077
2023-04-17T06:58:01.409Z,6.8308
2023-04-17T06:59:03.247Z,6.0462
2023-04-17T07:00:04.708Z,5.5846
2023-04-17T07:01:06.333Z,5.2077
2023-04-17T07:02:07.991Z,4.8769
2023-04-17T07:03:09.688Z,4.7615
2023-04-17T07:04:11.300Z,3.8000
2023-04-17T07:05:12.972Z,3.3077
2023-04-17T07:06:15.415Z,3.4385
2023-04-17T07:07:16.274Z,3.3538
2023-04-17T07:08:17.887Z,3.8000
2023-04-17T07:09:19.514Z,4.1308
2023-04-17T07:10:21.256Z,4.3154
2023-04-17T07:11:22.825Z,3.7077
2023-04-17T07:12:24.437Z,4.1923
2023-04-17T07:13:26.117Z,4.6154
2023-04-17T07:14:27.776Z,4.9615
2023-04-17T07:15:29.468Z,5.2231
2023-04-17T07:16:31.108Z,5.0462
2023-04-17T07:17:32.689Z,4.9846
2023-04-17T07:18:34.328Z,4.5769
2023-04-17T07:19:35.920Z,4.6615
2023-04-17T07:20:37.586Z,4.8231
2023-04-17T07:21:39.249Z,4.9308
2023-04-17T07:22:40.862Z,4.6462
2023-04-17T07:23:42.525Z,5.2923
2023-04-17T07:24:44.128Z,5.2615
2023-04-17T07:25:45.855Z,5.6385
2023-04-17T07:26:47.463Z,5.4692
2023-04-17T07:27:49.081Z,5.3615
2023-04-17T07:28:50.756Z,5.4154
2023-04-17T07:29:52.395Z,5.2846
2023-04-17T07:30:54.053Z,5.2000
2023-04-17T07:31:55.693Z,5.6231
2023-04-17T07:32:57.333Z,6.1308
2023-04-17T07:33:58.932Z,6.0692
2023-04-17T07:35:00.516Z,4.8385
2023-04-17T07:36:02.336Z,4.7462
2023-04-17T07:37:03.847Z,5.7231
2023-04-17T07:38:05.473Z,5.3769
2023-04-17T07:39:07.084Z,5.1077
2023-04-17T07:40:08.731Z,5.4462
2023-04-17T07:41:10.436Z,5.8077
2023-04-17T07:42:12.021Z,5.4846
2023-04-17T07:43:13.677Z,5.7231
2023-04-17T07:44:15.285Z,5.5077
2023-04-17T07:45:16.965Z,5.3538
2023-04-17T07:46:18.628Z,5.6231
2023-04-17T07:47:20.360Z,5.4846
2023-04-17T07:48:21.877Z,5.2615
2023-04-17T07:49:23.561Z,4.3385
2023-04-17T07:50:25.222Z,5.2385
2023-04-17T07:51:26.921Z,5.5077
2023-04-17T07:52:28.517Z,5.3923
2023-04-17T07:53:30.140Z,4.4538
2023-04-17T07:54:31.790Z,4.3000
2023-04-17T07:55:33.536Z,4.2308
2023-04-17T07:56:35.041Z,4.2846
2023-04-17T07:57:36.655Z,4.4154
2023-04-17T07:58:38.306Z,4.2000
2023-04-17T07:59:39.946Z,3.9769
2023-04-17T08:00:41.550Z,4.0615
2023-04-17T08:01:43.276Z,3.9154
2023-04-17T08:02:45.087Z,4.2769
2023-04-17T08:03:46.737Z,4.2308
2023-04-17T08:04:48.239Z,4.6923
2023-04-17T08:05:49.901Z,4.9000
2023-04-17T08:06:51.521Z,4.8308
2023-04-17T08:07:53.001Z,5.6692
2023-04-17T08:08:54.631Z,5.2615
2023-04-17T08:09:56.266Z,5.5769
2023-04-17T08:10:57.941Z,5.2923
2023-04-17T08:11:59.599Z,4.5538
2023-04-17T08:13:01.245Z,4.6923
2023-04-17T08:14:02.833Z,5.0615
2023-04-17T08:15:04.538Z,5.0692
2023-04-17T08:16:06.167Z,4.6615
2023-04-17T08:17:07.926Z,5.2846
2023-04-17T08:18:09.526Z,5.1615
2023-04-17T08:19:11.289Z,5.7692
2023-04-17T08:20:12.736Z,5.3923
2023-04-17T08:21:14.357Z,4.9385
2023-04-17T08:22:16.028Z,4.6385
2023-04-17T08:23:17.618Z,4.6231
2023-04-17T08:24:20.000Z,4.7154
2023-04-17T08:25:20.908Z,4.6000
2023-04-17T08:26:22.549Z,4.5538
2023-04-17T08:27:24.244Z,4.5154
2023-04-17T08:28:26.044Z,4.4000
2023-04-17T08:29:27.489Z,4.7231
2023-04-17T08:30:29.115Z,5.0077
2023-04-17T08:31:30.779Z,4.9692
2023-04-17T08:32:32.429Z,5.3692
2023-04-17T08:33:34.022Z,5.2692
2023-04-17T08:34:35.716Z,5.3692
2023-04-17T08:35:37.327Z,5.5077
2023-04-17T08:36:38.923Z,5.9769
2023-04-17T08:37:40.630Z,6.0692
2023-04-17T08:38:42.234Z,5.0769
2023-04-17T08:39:43.912Z,4.8692
2023-04-17T08:40:45.498Z,5.4308
2023-04-17T08:41:47.521Z,5.4308
2023-04-17T08:42:48.824Z,4.9692
2023-04-17T08:43:50.447Z,4.4846
2023-04-17T08:44:52.077Z,4.7154
2023-04-17T08:45:54.065Z,4.9692
2023-04-17T08:46:55.367Z,4.9923
2023-04-17T08:47:57.038Z,4.5462
2023-04-17T08:48:58.592Z,3.9462
2023-04-17T08:50:00.243Z,3.7077
2023-04-17T08:51:02.006Z,4.5000
2023-04-17T08:52:03.603Z,4.1154
2023-04-17T08:53:05.305Z,4.4308
2023-04-17T08:54:06.976Z,5.0077
2023-04-17T08:55:08.551Z,3.9000
2023-04-17T08:56:10.157Z,3.6846
2023-04-17T08:57:11.796Z,4.1615
2023-04-17T08:58:13.431Z,4.7538
2023-04-17T08:59:15.096Z,3.6615
2023-04-17T09:00:16.749Z,3.0538
2023-04-17T09:01:18.432Z,3.4308
2023-04-17T09:02:20.135Z,3.8615
2023-04-17T09:03:21.836Z,3.7538
2023-04-17T09:04:23.465Z,3.8846
2023-04-17T09:05:24.930Z,4.0000
2023-04-17T09:06:26.563Z,3.9000
2023-04-17T09:07:28.127Z,3.5000
2023-04-17T09:08:29.783Z,3.7769
2023-04-17T09:09:31.391Z,3.9231
2023-04-17T09:10:33.349Z,4.5308
2023-04-17T09:11:34.688Z,5.3692
2023-04-17T09:12:36.334Z,8.0077
2023-04-17T09:13:37.996Z,6.5769
2023-04-17T09:14:39.584Z,4.7692
2023-04-17T09:15:41.343Z,4.0538
2023-04-17T09:16:42.853Z,4.2692
2023-04-17T09:17:44.625Z,4.6231
2023-04-17T09:18:46.170Z,9.2846
2023-04-17T09:19:47.785Z,5.3462
2023-04-17T09:20:49.481Z,4.9846
2023-04-17T09:21:51.122Z,4.3385
2023-04-17T09:22:52.777Z,3.7769
2023-04-17T09:23:54.446Z,3.9077
2023-04-17T09:24:57.614Z,3.4462
2023-04-17T09:25:57.716Z,3.6538
2023-04-17T09:26:59.357Z,3.4846
2023-04-17T09:28:00.955Z,3.4462
2023-04-17T09:29:02.633Z,3.4308
2023-04-17T09:30:04.264Z,3.5308
2023-04-17T09:31:05.951Z,3.8308
2023-04-17T09:32:07.572Z,3.8231
2023-04-17T09:33:09.181Z,3.7077
2023-04-17T09:34:10.882Z,3.9923
2023-04-17T09:35:12.471Z,3.8769
2023-04-17T09:36:14.100Z,3.7615
2023-04-17T09:37:15.747Z,3.6000
2023-04-17T09:38:17.559Z,3.6462
2023-04-17T09:39:19.024Z,3.6769
2023-04-17T09:40:20.651Z,3.9077
2023-04-17T09:41:22.284Z,3.5000
2023-04-17T09:42:23.914Z,3.5308
2023-04-17T09:43:25.547Z,3.3077
2023-04-17T09:44:27.210Z,3.8231
2023-04-17T09:45:28.814Z,3.8769
2023-04-17T09:46:30.561Z,3.7769
2023-04-17T09:47:32.147Z,3.8308
2023-04-17T09:48:33.719Z,4.8538
2023-04-17T09:49:35.418Z,3.9462
2023-04-17T09:50:38.625Z,4.5308
2023-04-17T09:51:38.613Z,4.8385
2023-04-17T09:52:40.270Z,4.1077
2023-04-17T09:53:41.951Z,4.5462
2023-04-17T09:54:43.595Z,5.2846
2023-04-17T09:55:45.215Z,4.8308
2023-04-17T09:56:47.304Z,5.0538
2023-04-17T09:57:48.465Z,4.4615
2023-04-17T09:58:50.081Z,5.5615
2023-04-17T09:59:51.755Z,7.1308
2023-04-17T10:00:53.446Z,6.2846
2023-04-17T10:01:55.346Z,4.4308
2023-04-17T10:02:56.885Z,5.2538
2023-04-17T10:03:58.377Z,4.3308
2023-04-17T10:04:59.919Z,3.8538
2023-04-17T10:06:01.554Z,4.2769
2023-04-17T10:07:03.162Z,4.5769
2023-04-17T10:08:04.823Z,3.7923
2023-04-17T10:09:06.425Z,3.8385
2023-04-17T10:10:08.124Z,4.1077
2023-04-17T10:11:09.727Z,4.3692
2023-04-17T10:12:11.360Z,4.5154
2023-04-17T10:13:12.984Z,3.8154
2023-04-17T10:14:14.866Z,3.9769
2023-04-17T10:15:16.292Z,3.4000
2023-04-17T10:16:17.933Z,2.8769
2023-04-17T10:17:19.551Z,2.6923
2023-04-17T10:18:21.167Z,2.8538
2023-04-17T10:19:23.174Z,2.9923
2023-04-17T10:20:24.493Z,3.1923
2023-04-17T10:21:26.108Z,2.8000
2023-04-17T10:22:27.731Z,2.6538
2023-04-17T10:23:29.375Z,2.5923
2023-04-17T10:24:31.051Z,2.3154
2023-04-17T10:25:32.693Z,2.3538
2023-04-17T10:26:34.291Z,2.1846
2023-04-17T10:27:36.981Z,2.1385
2023-04-17T10:28:37.677Z,2.2077
2023-04-17T10:29:39.322Z,1.9385
2023-04-17T10:30:43.318Z,2.3154
2023-04-17T10:31:42.649Z,1.4231
2023-04-17T10:32:44.351Z,1.6000
2023-04-17T10:33:45.955Z,2.0077
2023-04-17T10:34:47.564Z,2.0154
2023-04-17T10:35:49.279Z,2.1769
2023-04-17T10:36:50.825Z,2.8385
2023-04-17T10:37:52.462Z,2.0769
2023-04-17T10:38:54.076Z,1.7231
2023-04-17T10:39:55.724Z,1.7769
2023-04-17T10:40:58.894Z,1.5154
2023-04-17T10:41:58.990Z,1.7462
2023-04-17T10:43:00.691Z,2.0846
2023-04-17T10:44:02.276Z,1.9615
2023-04-17T10:45:03.897Z,2.1692
2023-04-17T10:46:05.613Z,1.8769
2023-04-17T10:47:07.198Z,1.7308
2023-04-17T10:48:08.910Z,1.6077
2023-04-17T10:49:10.851Z,1.4538
2023-04-17T10:50:12.196Z,1.4385
2023-04-17T10:51:13.790Z,1.4923
2023-04-17T10:52:15.367Z,1.3923
2023-04-17T10:53:17.023Z,1.3308
2023-04-17T10:54:18.752Z,1.4846
2023-04-17T10:55:20.315Z,1.2077
2023-04-17T10:56:21.972Z,1.0923
2023-04-17T10:57:23.552Z,1.3538
2023-04-17T10:58:31.453Z,1.7385
2023-04-17T10:59:26.852Z,1.2538
2023-04-17T11:00:28.487Z,1.2154
2023-04-17T11:01:30.247Z,1.0846
2023-04-17T11:02:31.908Z,1.1308
2023-04-17T11:03:33.505Z,1.3154
2023-04-17T11:04:35.050Z,1.4231
2023-04-17T11:05:36.597Z,1.2615
2023-04-17T11:06:38.254Z,1.3385
2023-04-17T11:07:39.894Z,1.4308
2023-04-17T11:08:41.511Z,1.3769
2023-04-17T11:09:43.111Z,1.4692
2023-04-17T11:10:44.792Z,1.5077
2023-04-17T11:11:46.494Z,2.0000
2023-04-17T11:12:48.095Z,1.9385
2023-04-17T11:13:49.715Z,1.5385
2023-04-17T11:14:51.346Z,1.9231
2023-04-17T11:15:53.002Z,1.4846
2023-04-17T11:16:54.655Z,1.6538
2023-04-17T11:17:56.299Z,2.2692
2023-04-17T11:18:57.911Z,2.3462
2023-04-17T11:19:59.566Z,2.2846
2023-04-17T11:21:01.199Z,1.8615
2023-04-17T11:22:02.960Z,1.6923
2023-04-17T11:23:04.501Z,1.9846
2023-04-17T11:24:06.115Z,1.3538
2023-04-17T11:25:07.809Z,1.9538
2023-04-17T11:26:09.421Z,1.6923
2023-04-17T11:27:11.097Z,2.0231
2023-04-17T11:28:12.706Z,2.3000
2023-04-17T11:29:14.592Z,1.7308
2023-04-17T11:30:15.988Z,1.8308
2023-04-17T11:31:19.775Z,1.9538
2023-04-17T11:32:19.344Z,1.5308
2023-04-17T11:33:20.916Z,3.3769
2023-04-17T11:34:22.656Z,2.6769
2023-04-17T11:35:24.186Z,1.5385
2023-04-17T11:36:25.770Z,1.7538
2023-04-17T11:37:27.459Z,1.7154
2023-04-17T11:38:29.061Z,3.0154
2023-04-17T11:39:30.733Z,2.3231
2023-04-17T11:40:32.357Z,3.0231
2023-04-17T11:41:34.026Z,3.4000
2023-04-17T11:42:35.667Z,2.6615
2023-04-17T11:43:37.301Z,2.7385
2023-04-17T11:44:38.888Z,5.0846
2023-04-17T11:45:40.575Z,4.3538
2023-04-17T11:46:42.385Z,2.1308
2023-04-17T11:47:43.975Z,0.8615
2023-04-17T11:48:45.446Z,1.5231
2023-04-17T11:49:47.182Z,1.8462
2023-04-17T11:50:48.946Z,2.4692
2023-04-17T11:51:50.405Z,2.3308
2023-04-17T11:52:52.099Z,1.8923
2023-04-17T11:53:53.686Z,1.2769
2023-04-17T11:54:55.426Z,2.6077
2023-04-17T11:55:56.948Z,1.8385
2023-04-17T11:56:58.604Z,2.3769
2023-04-17T11:58:00.287Z,3.0231
2023-04-17T11:59:01.924Z,1.8462
2023-04-17T12:00:03.525Z,2.0308
2023-04-17T12:01:05.169Z,1.8846
2023-04-17T12:02:07.182Z,2.3385
2023-04-17T12:03:08.634Z,1.9923
2023-04-17T12:04:10.293Z,2.1462
2023-04-17T12:05:11.920Z,3.0154
2023-04-17T12:06:13.366Z,2.2077
2023-04-17T12:07:15.007Z,2.0538
2023-04-17T12:08:16.689Z,2.0308
2023-04-17T12:09:18.289Z,2.7077
2023-04-17T12:10:19.913Z,2.0154
2023-04-17T12:11:21.565Z,2.6923
2023-04-17T12:12:23.271Z,2.1538
2023-04-17T12:13:24.955Z,2.2538
2023-04-17T12:14:26.673Z,1.9769
2023-04-17T12:15:28.166Z,1.5462
2023-04-17T12:16:29.848Z,1.6154
2023-04-17T12:17:31.507Z,2.3000
2023-04-17T12:18:33.192Z,1.5231
2023-04-17T12:19:34.741Z,1.7154
2023-04-17T12:20:36.362Z,3.3769
2023-04-17T12:21:38.016Z,1.8846
2023-04-17T12:22:39.689Z,2.0154
2023-04-17T12:23:41.382Z,1.8692
2023-04-17T12:24:42.937Z,1.5692
2023-04-17T12:25:44.581Z,1.5385
2023-04-17T12:26:46.234Z,1.4154
2023-04-17T12:27:49.371Z,1.6769
2023-04-17T12:28:49.544Z,5.4077
2023-04-17T12:29:51.121Z,3.8769
2023-04-17T12:30:52.810Z,1.7846
2023-04-17T12:31:54.465Z,2.3154
2023-04-17T12:32:56.095Z,1.5846
2023-04-17T12:33:57.771Z,2.3000
2023-04-17T12:34:59.329Z,2.4154
2023-04-17T12:36:01.049Z,2.1000
2023-04-17T12:37:02.592Z,2.5462
2023-04-17T12:38:04.227Z,2.3846
2023-04-17T12:39:05.883Z,1.3923